Nora, Minnesota
Current Conditions -  °F | °C
As of 10:35 AM on Wednesday 26 Nov 2014 (Local Time) from KFSE Reporting Station
Broken Clouds Broken Clouds  
Wind Chill: -15°   Ceiling: 6000
Heat Index:   Visibility: 10mi
Dew Point: -6°   Wind: 15mph
Humidity: 66%   Direction: 360°N
Pressure: 30.33"   Gusts: NA
Location:  47.3892°N, 95.4294°W
Report Text: KFSE 261635Z AUTO 36013KT 10SM BKN060 M16/M21 A3033 RMK AO2
Loading
Personal Weather Stations






























Interactive Weather Map New forecast layout! Learn more

10-Day Weather Forecast

Advertisements
Track Severe Weather on mobile